Shirahamamaru — JG4872 — position and weather

sailwx.info

Track history (hours):
 
Tides and Currents Weather Stations Pressure Air Temp Water Temp Dewpoint Dewpoint Depression Visibility Wind Speed Wind Dir Waves Ship Positions

Shirahamamaru

Last reported at 2016-Feb-12 10:26 UTC. Time now 2016-Feb-12 14:09 UTC.
Position N 35°13' E 139°44'.

Length 79 m; draft 3.2 m.

Type: Passenger vessel. MMSI: 431000239.

Date/timePositionNaut miles runAvg speedWind from/ knotsBaromVisibWave heightAir tempDewpointWater temp
2016-Feb-12 10:26N 35°13' E 139°44'4 4.0
2016-Feb-12 09:32N 35°11' E 139°48'4 4.5
2016-Feb-12 08:33N 35°13' E 139°44'5 5.1
2016-Feb-12 07:33N 35°10' E 139°49'5 5.1
2016-Feb-12 06:33N 35°13' E 139°44'1 0.6
2016-Feb-12 05:33N 35°13' E 139°43'6 5.6
2016-Feb-12 04:30N 35°10' E 139°49'2 2.4
2016-Feb-12 03:33N 35°12' E 139°47'4 3.7
2016-Feb-12 02:33N 35°13' E 139°43'5 4.7
2016-Feb-12 01:33N 35°11' E 139°48'4 4.2
2016-Feb-12 00:33N 35°13' E 139°43'3 2.5
2016-Feb-11 23:33N 35°12' E 139°46'1 1.3
2016-Feb-11 22:33N 35°13' E 139°45'2 2.1
2016-Feb-11 21:33N 35°12' E 139°47'1 0.1
2016-Feb-11 10:33N 35°12' E 139°46'2 1.9
2016-Feb-11 09:33N 35°11' E 139°48'4 4.2
2016-Feb-11 08:33N 35°13' E 139°44'5 5.2
2016-Feb-11 07:33N 35°10' E 139°49'5 5.2
2016-Feb-11 06:33N 35°13' E 139°44'3 3.3
2016-Feb-11 05:33N 35°12' E 139°47'2 2.2
2016-Feb-11 04:33N 35°13' E 139°45'3 3.2
2016-Feb-11 03:33N 35°11' E 139°48'4 4.4
2016-Feb-11 02:33N 35°13' E 139°44'4 4.3
2016-Feb-11 01:33N 35°11' E 139°48'4 4.3
2016-Feb-11 00:34N 35°13' E 139°43'2 2.4
2016-Feb-10 23:33N 35°12' E 139°46'1 1.4
2016-Feb-10 22:33N 35°13' E 139°45'2 2.4
2016-Feb-10 21:33N 35°12' E 139°47'1 0.1
2016-Feb-10 10:34N 35°12' E 139°46'2 1.9
2016-Feb-10 09:33N 35°11' E 139°48'4 4.4
2016-Feb-10 08:33N 35°13' E 139°43'5 5.4
2016-Feb-10 07:33N 35°10' E 139°49'5 5.3
2016-Feb-10 06:31N 35°13' E 139°43'0 0.4
2016-Feb-10 05:33N 35°13' E 139°43'6 5.9
2016-Feb-10 04:33N 35°10' E 139°49'2 2.2
2016-Feb-10 03:33N 35°11' E 139°47'4 3.7
2016-Feb-10 02:33N 35°13' E 139°43'5 4.8
2016-Feb-10 01:33N 35°11' E 139°48'4 4.1
2016-Feb-10 00:33N 35°13' E 139°44'2 2.5
2016-Feb-09 23:33N 35°12' E 139°46'2 1.5
2016-Feb-09 22:33N 35°13' E 139°45'2 2.3
2016-Feb-09 21:33N 35°12' E 139°47'4 3.9
2016-Feb-09 20:33N 35°13' E 139°43'0 0.0
2016-Feb-09 07:31N 35°13' E 139°43'0 0.0
2016-Feb-09 06:33N 35°13' E 139°43'0 0.0
2016-Feb-09 05:32N 35°13' E 139°43'6 5.8
2016-Feb-09 04:33N 35°10' E 139°49'2 2.0
2016-Feb-09 03:33N 35°11' E 139°47'4 3.7
2016-Feb-09 02:33N 35°13' E 139°43'5 4.9
2016-Feb-09 01:33N 35°11' E 139°48'4 4.3
2016-Feb-09 00:33N 35°13' E 139°44'2 2.4
2016-Feb-08 23:33N 35°12' E 139°46'2 1.7
2016-Feb-08 22:33N 35°13' E 139°44'3 2.9
2016-Feb-08 21:33N 35°11' E 139°47'2 0.2
2016-Feb-08 10:33N 35°12' E 139°46'2 2.1
2016-Feb-08 09:33N 35°11' E 139°48'4 4.2
2016-Feb-08 08:33N 35°13' E 139°44'5 5.2
2016-Feb-08 07:33N 35°10' E 139°49'5 5.1
2016-Feb-08 06:33N 35°13' E 139°44'1 0.6
2016-Feb-08 05:33N 35°13' E 139°43'6 5.9
2016-Feb-08 04:33N 35°10' E 139°49'2 2.5
2016-Feb-08 03:33N 35°12' E 139°47'3 3.4
2016-Feb-08 02:33N 35°13' E 139°43'5 4.7
2016-Feb-08 01:34N 35°11' E 139°48'4 4.0
2016-Feb-08 00:33N 35°13' E 139°44'2 2.2
2016-Feb-07 23:33N 35°12' E 139°46'1 1.2
2016-Feb-07 22:33N 35°13' E 139°45'2 2.2
2016-Feb-07 21:33N 35°12' E 139°47'1 0.1
2016-Feb-07 10:33N 35°12' E 139°46'2 1.8
2016-Feb-07 09:34N 35°11' E 139°48'4 4.2
2016-Feb-07 08:32N 35°13' E 139°43'5 5.5
2016-Feb-07 07:33N 35°10' E 139°49'5 5.2
2016-Feb-07 06:32N 35°13' E 139°43'4 3.7
2016-Feb-07 05:33N 35°12' E 139°47'2 2.2
2016-Feb-07 04:34N 35°13' E 139°45'3 3.1
2016-Feb-07 03:34N 35°11' E 139°48'4 4.2
2016-Feb-07 02:33N 35°13' E 139°44'4 4.1
2016-Feb-07 01:34N 35°11' E 139°48'4 3.9
2016-Feb-07 00:33N 35°13' E 139°44'2 2.0
2016-Feb-06 23:33N 35°12' E 139°46'1 1.1
2016-Feb-06 22:34N 35°13' E 139°45'2 2.1
2016-Feb-06 21:34N 35°12' E 139°47'2 0.2
2016-Feb-06 11:04N 35°10' E 139°49'3 6.2
2016-Feb-06 10:33N 35°12' E 139°46'2 2.2
2016-Feb-06 09:33N 35°11' E 139°48'4 4.3
2016-Feb-06 08:33N 35°13' E 139°44'5 5.2
2016-Feb-06 07:33N 35°10' E 139°49'5 5.1
2016-Feb-06 06:33N 35°13' E 139°44'3 3.2
2016-Feb-06 05:33N 35°11' E 139°47'2 2.3
2016-Feb-06 04:33N 35°13' E 139°45'3 3.3
2016-Feb-06 03:33N 35°11' E 139°48'4 4.4
2016-Feb-06 02:33N 35°13' E 139°43'5 4.5
2016-Feb-06 01:33N 35°11' E 139°48'4 4.4
2016-Feb-06 00:33N 35°13' E 139°44'2 2.3
2016-Feb-05 23:33N 35°12' E 139°46'1 1.3
2016-Feb-05 22:33N 35°13' E 139°45'2 2.1
2016-Feb-05 21:33N 35°12' E 139°47'1 0.1
2016-Feb-05 10:33N 35°12' E 139°46'2 2.0
2016-Feb-05 09:33N 35°11' E 139°48'4 4.1
2016-Feb-05 08:33N 35°13' E 139°44'5 5.2
2016-Feb-05 07:33N 35°10' E 139°49'5 5.2
2016-Feb-05 06:32N 35°13' E 139°44'1 0.6
2016-Feb-05 05:33N 35°13' E 139°43'6 5.8
2016-Feb-05 04:33N 35°10' E 139°49'2 2.2
2016-Feb-05 03:33N 35°12' E 139°47'4 3.7
2016-Feb-05 02:33N 35°13' E 139°43'5 4.8
2016-Feb-05 01:33N 35°11' E 139°48'4 4.3
2016-Feb-05 00:32N 35°13' E 139°44'2 2.4
2016-Feb-04 23:33N 35°12' E 139°46'1 1.4
2016-Feb-04 22:32N 35°13' E 139°45'2 2.3
2016-Feb-04 21:33N 35°12' E 139°47'1 0.1
2016-Feb-04 10:33N 35°12' E 139°45'2 2.3
2016-Feb-04 09:33N 35°11' E 139°48'4 4.2
2016-Feb-04 08:32N 35°13' E 139°43'5 5.3
2016-Feb-04 07:33N 35°10' E 139°49'5 5.1
2016-Feb-04 06:33N 35°13' E 139°43'0 0.5
2016-Feb-04 05:33N 35°13' E 139°43'6 5.2
2016-Feb-04 04:26N 35°10' E 139°49'2 2.6
2016-Feb-04 03:33N 35°11' E 139°47'4 3.6
2016-Feb-04 02:33N 35°13' E 139°43'5 4.8
2016-Feb-04 01:33N 35°11' E 139°48'4 4.2
2016-Feb-04 00:33N 35°13' E 139°44'2 2.1
2016-Feb-03 23:33N 35°12' E 139°46'1 1.3
2016-Feb-03 22:33N 35°13' E 139°45'2 2.3
2016-Feb-03 21:33N 35°11' E 139°47'1 0.1
2016-Feb-03 10:33N 35°12' E 139°46'2 2.0
2016-Feb-03 09:33N 35°11' E 139°48'4 4.2
2016-Feb-03 08:33N 35°13' E 139°43'5 5.3
2016-Feb-03 07:33N 35°10' E 139°49'5 5.1
2016-Feb-03 06:33N 35°13' E 139°44'1 0.6
2016-Feb-03 05:31N 35°13' E 139°43'6 5.7
2016-Feb-03 04:29N 35°10' E 139°49'2 2.4
2016-Feb-03 03:33N 35°11' E 139°47'4 3.6
2016-Feb-03 02:33N 35°13' E 139°43'5 4.8
2016-Feb-03 01:33N 35°11' E 139°48'4 4.1
2016-Feb-03 00:33N 35°13' E 139°44'2 2.2
2016-Feb-02 23:33N 35°12' E 139°46'1 1.3
2016-Feb-02 22:33N 35°13' E 139°45'2 2.4
2016-Feb-02 21:33N 35°11' E 139°47'1 0.1
2016-Feb-02 10:33N 35°12' E 139°46'  
Track history (hours):
 
Tides and Currents Weather Stations Pressure Air Temp Water Temp Dewpoint Dewpoint Depression Visibility Wind Speed Wind Dir Waves Ship Positions

Shirahamamaru

Last reported at 2016-Feb-12 10:26 UTC. Time now 2016-Feb-12 14:09 UTC.
Position N 35°13' E 139°44'.

Length 79 m; draft 3.2 m.

Type: Passenger vessel. MMSI: 431000239.

Date/timePositionNaut miles runAvg speedWind from/ knotsBaromVisibWave heightAir tempDewpointWater temp
2016-Feb-12 10:26N 35°13' E 139°44'4 4.0
2016-Feb-12 09:32N 35°11' E 139°48'4 4.5
2016-Feb-12 08:33N 35°13' E 139°44'5 5.1
2016-Feb-12 07:33N 35°10' E 139°49'5 5.1
2016-Feb-12 06:33N 35°13' E 139°44'1 0.6
2016-Feb-12 05:33N 35°13' E 139°43'6 5.6
2016-Feb-12 04:30N 35°10' E 139°49'2 2.4
2016-Feb-12 03:33N 35°12' E 139°47'4 3.7
2016-Feb-12 02:33N 35°13' E 139°43'5 4.7
2016-Feb-12 01:33N 35°11' E 139°48'4 4.2
2016-Feb-12 00:33N 35°13' E 139°43'3 2.5
2016-Feb-11 23:33N 35°12' E 139°46'1 1.3
2016-Feb-11 22:33N 35°13' E 139°45'2 2.1
2016-Feb-11 21:33N 35°12' E 139°47'1 0.1
2016-Feb-11 10:33N 35°12' E 139°46'2 1.9
2016-Feb-11 09:33N 35°11' E 139°48'4 4.2
2016-Feb-11 08:33N 35°13' E 139°44'5 5.2
2016-Feb-11 07:33N 35°10' E 139°49'5 5.2
2016-Feb-11 06:33N 35°13' E 139°44'3 3.3
2016-Feb-11 05:33N 35°12' E 139°47'2 2.2
2016-Feb-11 04:33N 35°13' E 139°45'3 3.2
2016-Feb-11 03:33N 35°11' E 139°48'4 4.4
2016-Feb-11 02:33N 35°13' E 139°44'4 4.3
2016-Feb-11 01:33N 35°11' E 139°48'4 4.3
2016-Feb-11 00:34N 35°13' E 139°43'2 2.4
2016-Feb-10 23:33N 35°12' E 139°46'1 1.4
2016-Feb-10 22:33N 35°13' E 139°45'2 2.4
2016-Feb-10 21:33N 35°12' E 139°47'1 0.1
2016-Feb-10 10:34N 35°12' E 139°46'2 1.9
2016-Feb-10 09:33N 35°11' E 139°48'4 4.4
2016-Feb-10 08:33N 35°13' E 139°43'5 5.4
2016-Feb-10 07:33N 35°10' E 139°49'5 5.3
2016-Feb-10 06:31N 35°13' E 139°43'0 0.4
2016-Feb-10 05:33N 35°13' E 139°43'6 5.9
2016-Feb-10 04:33N 35°10' E 139°49'2 2.2
2016-Feb-10 03:33N 35°11' E 139°47'4 3.7
2016-Feb-10 02:33N 35°13' E 139°43'5 4.8
2016-Feb-10 01:33N 35°11' E 139°48'4 4.1
2016-Feb-10 00:33N 35°13' E 139°44'2 2.5
2016-Feb-09 23:33N 35°12' E 139°46'2 1.5
2016-Feb-09 22:33N 35°13' E 139°45'2 2.3
2016-Feb-09 21:33N 35°12' E 139°47'4 3.9
2016-Feb-09 20:33N 35°13' E 139°43'0 0.0
2016-Feb-09 07:31N 35°13' E 139°43'0 0.0
2016-Feb-09 06:33N 35°13' E 139°43'0 0.0
2016-Feb-09 05:32N 35°13' E 139°43'6 5.8
2016-Feb-09 04:33N 35°10' E 139°49'2 2.0
2016-Feb-09 03:33N 35°11' E 139°47'4 3.7
2016-Feb-09 02:33N 35°13' E 139°43'5 4.9
2016-Feb-09 01:33N 35°11' E 139°48'4 4.3
2016-Feb-09 00:33N 35°13' E 139°44'2 2.4
2016-Feb-08 23:33N 35°12' E 139°46'2 1.7
2016-Feb-08 22:33N 35°13' E 139°44'3 2.9
2016-Feb-08 21:33N 35°11' E 139°47'2 0.2
2016-Feb-08 10:33N 35°12' E 139°46'2 2.1
2016-Feb-08 09:33N 35°11' E 139°48'4 4.2
2016-Feb-08 08:33N 35°13' E 139°44'5 5.2
2016-Feb-08 07:33N 35°10' E 139°49'5 5.1
2016-Feb-08 06:33N 35°13' E 139°44'1 0.6
2016-Feb-08 05:33N 35°13' E 139°43'6 5.9
2016-Feb-08 04:33N 35°10' E 139°49'2 2.5
2016-Feb-08 03:33N 35°12' E 139°47'3 3.4
2016-Feb-08 02:33N 35°13' E 139°43'5 4.7
2016-Feb-08 01:34N 35°11' E 139°48'4 4.0
2016-Feb-08 00:33N 35°13' E 139°44'2 2.2
2016-Feb-07 23:33N 35°12' E 139°46'1 1.2
2016-Feb-07 22:33N 35°13' E 139°45'2 2.2
2016-Feb-07 21:33N 35°12' E 139°47'1 0.1
2016-Feb-07 10:33N 35°12' E 139°46'2 1.8
2016-Feb-07 09:34N 35°11' E 139°48'4 4.2
2016-Feb-07 08:32N 35°13' E 139°43'5 5.5
2016-Feb-07 07:33N 35°10' E 139°49'5 5.2
2016-Feb-07 06:32N 35°13' E 139°43'4 3.7
2016-Feb-07 05:33N 35°12' E 139°47'2 2.2
2016-Feb-07 04:34N 35°13' E 139°45'3 3.1
2016-Feb-07 03:34N 35°11' E 139°48'4 4.2
2016-Feb-07 02:33N 35°13' E 139°44'4 4.1
2016-Feb-07 01:34N 35°11' E 139°48'4 3.9
2016-Feb-07 00:33N 35°13' E 139°44'2 2.0
2016-Feb-06 23:33N 35°12' E 139°46'1 1.1
2016-Feb-06 22:34N 35°13' E 139°45'2 2.1
2016-Feb-06 21:34N 35°12' E 139°47'2 0.2
2016-Feb-06 11:04N 35°10' E 139°49'3 6.2
2016-Feb-06 10:33N 35°12' E 139°46'2 2.2
2016-Feb-06 09:33N 35°11' E 139°48'4 4.3
2016-Feb-06 08:33N 35°13' E 139°44'5 5.2
2016-Feb-06 07:33N 35°10' E 139°49'5 5.1
2016-Feb-06 06:33N 35°13' E 139°44'3 3.2
2016-Feb-06 05:33N 35°11' E 139°47'2 2.3
2016-Feb-06 04:33N 35°13' E 139°45'3 3.3
2016-Feb-06 03:33N 35°11' E 139°48'4 4.4
2016-Feb-06 02:33N 35°13' E 139°43'5 4.5
2016-Feb-06 01:33N 35°11' E 139°48'4 4.4
2016-Feb-06 00:33N 35°13' E 139°44'2 2.3
2016-Feb-05 23:33N 35°12' E 139°46'1 1.3
2016-Feb-05 22:33N 35°13' E 139°45'2 2.1
2016-Feb-05 21:33N 35°12' E 139°47'1 0.1
2016-Feb-05 10:33N 35°12' E 139°46'2 2.0
2016-Feb-05 09:33N 35°11' E 139°48'4 4.1
2016-Feb-05 08:33N 35°13' E 139°44'5 5.2
2016-Feb-05 07:33N 35°10' E 139°49'5 5.2
2016-Feb-05 06:32N 35°13' E 139°44'1 0.6
2016-Feb-05 05:33N 35°13' E 139°43'6 5.8
2016-Feb-05 04:33N 35°10' E 139°49'2 2.2
2016-Feb-05 03:33N 35°12' E 139°47'4 3.7
2016-Feb-05 02:33N 35°13' E 139°43'5 4.8
2016-Feb-05 01:33N 35°11' E 139°48'4 4.3
2016-Feb-05 00:32N 35°13' E 139°44'2 2.4
2016-Feb-04 23:33N 35°12' E 139°46'1 1.4
2016-Feb-04 22:32N 35°13' E 139°45'2 2.3
2016-Feb-04 21:33N 35°12' E 139°47'1 0.1
2016-Feb-04 10:33N 35°12' E 139°45'2 2.3
2016-Feb-04 09:33N 35°11' E 139°48'4 4.2
2016-Feb-04 08:32N 35°13' E 139°43'5 5.3
2016-Feb-04 07:33N 35°10' E 139°49'5 5.1
2016-Feb-04 06:33N 35°13' E 139°43'0 0.5
2016-Feb-04 05:33N 35°13' E 139°43'6 5.2
2016-Feb-04 04:26N 35°10' E 139°49'2 2.6
2016-Feb-04 03:33N 35°11' E 139°47'4 3.6
2016-Feb-04 02:33N 35°13' E 139°43'5 4.8
2016-Feb-04 01:33N 35°11' E 139°48'4 4.2
2016-Feb-04 00:33N 35°13' E 139°44'2 2.1
2016-Feb-03 23:33N 35°12' E 139°46'1 1.3
2016-Feb-03 22:33N 35°13' E 139°45'2 2.3
2016-Feb-03 21:33N 35°11' E 139°47'1 0.1
2016-Feb-03 10:33N 35°12' E 139°46'2 2.0
2016-Feb-03 09:33N 35°11' E 139°48'4 4.2
2016-Feb-03 08:33N 35°13' E 139°43'5 5.3
2016-Feb-03 07:33N 35°10' E 139°49'5 5.1
2016-Feb-03 06:33N 35°13' E 139°44'1 0.6
2016-Feb-03 05:31N 35°13' E 139°43'6 5.7
2016-Feb-03 04:29N 35°10' E 139°49'2 2.4
2016-Feb-03 03:33N 35°11' E 139°47'4 3.6
2016-Feb-03 02:33N 35°13' E 139°43'5 4.8
2016-Feb-03 01:33N 35°11' E 139°48'4 4.1
2016-Feb-03 00:33N 35°13' E 139°44'2 2.2
2016-Feb-02 23:33N 35°12' E 139°46'1 1.3
2016-Feb-02 22:33N 35°13' E 139°45'2 2.4
2016-Feb-02 21:33N 35°11' E 139°47'1 0.1
2016-Feb-02 10:33N 35°12' E 139°46'  

Dump ship's entire track history